KMRF/MRF METAR and TAF weather

Enter ICAO airport designator
Station Type Date Time Source
KMRF METAR 2020/09/18 16:56 UTC NOAA

KMRF 181656Z AUTO 04013G21KT 10SM FEW042 BKN060 22/11 A3034 RMK AO2 SLP227 T02220111


Station Type Date Time Source
KMRF Decoded METAR 2020/09/18 16:56 UTC NOAA

Marfa, TX, United States (KMRF) 30-22N 104-01W 1481M
Sep 18, 2020 - 12:56 PM EDT / 2020.09.18 1656 UTC
Wind: from the NE (040 degrees) at 15 MPH (13 KT) gusting to 24 MPH (21 KT):0
Visibility: 10 mile(s):0
Sky conditions: mostly cloudy
Temperature: 72.0 F (22.2 C)
Dew Point: 52.0 F (11.1 C)
Relative Humidity: 49%
Pressure (altimeter): 30.34 in. Hg (1027 hPa)
ob: KMRF 181656Z AUTO 04013G21KT 10SM FEW042 BKN060 22/11 A3034 RMK AO2 SLP227 T02220111
cycle: 17

Station Type Date Time Source
KMRF TAF UTC NOAA

Error!

Example: see airport list